createdAt,value
2023-04-27T00:02:00.784Z,69.39
2023-04-27T00:04:28.181Z,70.49
2023-04-27T00:06:55.874Z,72.48
2023-04-27T00:09:23.155Z,73.08
2023-04-27T00:11:50.514Z,73.87
2023-04-27T00:14:17.674Z,72.86
2023-04-27T00:16:44.584Z,72.59
2023-04-27T00:19:11.937Z,71.53
2023-04-27T00:21:39.118Z,71.60
2023-04-27T00:24:06.316Z,71.37
2023-04-27T00:26:33.366Z,71.77
2023-04-27T00:29:00.465Z,72.18
2023-04-27T00:31:27.628Z,72.45
2023-04-27T00:33:54.769Z,72.23
2023-04-27T00:36:21.888Z,70.49
2023-04-27T00:38:49.818Z,70.88
2023-04-27T00:41:16.521Z,69.79
2023-04-27T00:43:44.257Z,69.08
2023-04-27T00:46:12.897Z,68.06
2023-04-27T00:48:41.274Z,67.93
2023-04-27T00:51:08.091Z,68.62
2023-04-27T00:53:34.820Z,68.35
2023-04-27T00:56:01.599Z,68.45
2023-04-27T00:58:31.188Z,68.71
2023-04-27T01:00:58.330Z,71.34
2023-04-27T01:03:25.194Z,70.23
2023-04-27T01:05:52.642Z,69.98
2023-04-27T01:08:21.271Z,70.58
2023-04-27T01:10:47.982Z,71.12
2023-04-27T01:13:15.522Z,69.81
2023-04-27T01:15:43.972Z,70.52
2023-04-27T01:18:10.707Z,70.22
2023-04-27T01:20:53.067Z,71.58
2023-04-27T01:23:20.302Z,72.57
2023-04-27T01:25:47.361Z,73.62
2023-04-27T01:28:15.397Z,73.45
2023-04-27T01:30:42.250Z,72.18
2023-04-27T01:33:09.057Z,71.89
2023-04-27T01:35:36.261Z,72.52
2023-04-27T01:38:03.379Z,72.75
2023-04-27T01:40:30.634Z,72.76
2023-04-27T01:43:07.236Z,73.82
2023-04-27T01:45:34.078Z,72.66
2023-04-27T01:48:01.038Z,72.79
2023-04-27T01:50:27.946Z,73.42
2023-04-27T01:52:55.002Z,72.66
2023-04-27T01:55:22.324Z,74.06
2023-04-27T01:57:49.493Z,74.50
2023-04-27T02:00:16.582Z,72.27
2023-04-27T02:02:43.733Z,71.26
2023-04-27T02:05:11.140Z,71.29
2023-04-27T02:07:38.278Z,69.35
2023-04-27T02:10:05.761Z,69.54
2023-04-27T02:12:32.528Z,70.86
2023-04-27T02:15:02.156Z,71.78
2023-04-27T02:17:29.214Z,69.86
2023-04-27T02:19:56.366Z,70.96
2023-04-27T02:22:23.793Z,71.56
2023-04-27T02:24:50.850Z,71.48
2023-04-27T02:27:18.976Z,71.79
2023-04-27T02:29:46.759Z,72.17
2023-04-27T02:32:14.099Z,72.33
2023-04-27T02:34:41.317Z,73.90
2023-04-27T02:37:08.593Z,73.76
2023-04-27T02:39:35.609Z,73.33
2023-04-27T02:42:02.713Z,73.42
2023-04-27T02:44:29.731Z,73.39
2023-04-27T02:46:56.796Z,73.04
2023-04-27T02:49:23.648Z,71.92
2023-04-27T02:51:50.884Z,72.22
2023-04-27T02:54:17.661Z,72.88
2023-04-27T02:56:44.810Z,73.06
2023-04-27T02:59:13.114Z,72.91
2023-04-27T03:01:41.076Z,72.94
2023-04-27T03:04:09.070Z,72.51
2023-04-27T03:06:36.106Z,72.78
2023-04-27T03:09:06.289Z,74.08
2023-04-27T03:11:33.037Z,74.52
2023-04-27T03:13:59.928Z,73.66
2023-04-27T03:16:27.942Z,72.39
2023-04-27T03:18:54.862Z,73.34
2023-04-27T03:21:21.919Z,72.50
2023-04-27T03:23:48.799Z,73.19
2023-04-27T03:26:16.027Z,72.19
2023-04-27T03:28:43.985Z,72.21
2023-04-27T03:31:12.079Z,72.20
2023-04-27T03:33:38.915Z,71.15
2023-04-27T03:36:07.129Z,71.73
2023-04-27T03:38:34.562Z,71.51
2023-04-27T03:41:01.583Z,71.71
2023-04-27T03:43:28.404Z,72.69
2023-04-27T03:45:55.509Z,72.77
2023-04-27T03:48:22.845Z,72.98
2023-04-27T03:50:49.763Z,73.16
2023-04-27T03:53:16.508Z,73.55
2023-04-27T03:55:43.773Z,74.72
2023-04-27T03:58:10.599Z,73.50
2023-04-27T04:00:51.520Z,73.78
2023-04-27T04:03:18.936Z,73.32
2023-04-27T04:05:45.974Z,73.50
2023-04-27T04:08:14.040Z,74.30
2023-04-27T04:10:40.818Z,73.70
2023-04-27T04:13:07.957Z,73.49
2023-04-27T04:15:34.734Z,73.46
2023-04-27T04:18:01.738Z,73.47
2023-04-27T04:20:28.623Z,72.90
2023-04-27T04:23:03.584Z,72.43
2023-04-27T04:25:33.505Z,72.96
2023-04-27T04:28:00.933Z,73.39
2023-04-27T04:30:28.182Z,72.58
2023-04-27T04:32:56.561Z,73.02
2023-04-27T04:35:23.360Z,73.17
2023-04-27T04:37:50.798Z,72.22
2023-04-27T04:40:18.140Z,72.39
2023-04-27T04:42:50.923Z,73.38
2023-04-27T04:45:17.966Z,73.46
2023-04-27T04:47:44.748Z,73.67
2023-04-27T04:50:11.475Z,72.69
2023-04-27T04:52:38.218Z,72.66
2023-04-27T04:55:05.565Z,71.78
2023-04-27T04:57:32.629Z,71.01
2023-04-27T04:59:59.572Z,71.64
2023-04-27T05:02:27.208Z,71.89
2023-04-27T05:04:55.108Z,71.98
2023-04-27T05:07:24.743Z,71.82
2023-04-27T05:09:52.849Z,72.01
2023-04-27T05:12:19.592Z,71.70
2023-04-27T05:14:46.714Z,72.02
2023-04-27T05:17:13.614Z,72.48
2023-04-27T05:19:40.628Z,71.97
2023-04-27T05:22:07.677Z,71.32
2023-04-27T05:24:34.401Z,71.00
2023-04-27T05:27:02.475Z,69.71
2023-04-27T05:29:29.364Z,69.59
2023-04-27T05:31:56.162Z,68.91
2023-04-27T05:34:23.107Z,69.18
2023-04-27T05:36:49.982Z,67.36
2023-04-27T05:39:17.224Z,67.14
2023-04-27T05:41:43.985Z,66.40
2023-04-27T05:44:11.170Z,67.35
2023-04-27T05:46:39.065Z,66.93
2023-04-27T05:49:06.220Z,66.89
2023-04-27T05:51:33.407Z,63.85
2023-04-27T05:54:00.138Z,62.34
2023-04-27T05:56:26.902Z,60.34
2023-04-27T05:58:55.094Z,57.31
2023-04-27T06:01:21.831Z,57.53
2023-04-27T06:03:48.652Z,58.03
2023-04-27T06:07:08.004Z,57.01
2023-04-27T06:09:34.982Z,56.07
2023-04-27T06:12:33.174Z,57.52
2023-04-27T06:15:00.218Z,56.53
2023-04-27T06:17:27.346Z,55.77
2023-04-27T06:19:54.239Z,55.44
2023-04-27T06:22:20.937Z,54.56
2023-04-27T06:24:47.899Z,54.11
2023-04-27T06:27:14.784Z,53.61
2023-04-27T06:29:41.595Z,53.12
2023-04-27T06:32:09.849Z,51.30
2023-04-27T06:34:36.634Z,52.62
2023-04-27T06:37:03.661Z,53.79
2023-04-27T06:39:31.694Z,53.15
2023-04-27T06:41:58.433Z,52.48
2023-04-27T06:44:25.257Z,51.54
2023-04-27T06:46:52.087Z,50.42
2023-04-27T06:49:18.838Z,49.67
2023-04-27T06:51:45.651Z,50.04
2023-04-27T06:54:12.751Z,47.95
2023-04-27T06:56:39.454Z,48.34
2023-04-27T06:59:08.567Z,46.98
2023-04-27T07:01:36.356Z,46.22
2023-04-27T07:04:05.440Z,46.24
2023-04-27T07:06:35.179Z,43.93
2023-04-27T07:09:03.406Z,45.35
2023-04-27T07:11:33.841Z,44.75
2023-04-27T07:14:00.509Z,45.58
2023-04-27T07:16:27.514Z,46.50
2023-04-27T07:18:54.348Z,46.83
2023-04-27T07:21:21.353Z,47.14
2023-04-27T07:23:48.216Z,49.20
2023-04-27T07:26:15.640Z,48.83
2023-04-27T07:28:43.154Z,48.08
2023-04-27T07:31:12.983Z,48.13
2023-04-27T07:33:41.066Z,51.94
2023-04-27T07:36:07.956Z,51.97
2023-04-27T07:38:35.519Z,50.21
2023-04-27T07:41:02.678Z,50.45
2023-04-27T07:43:31.397Z,51.88
2023-04-27T07:45:58.484Z,54.02
2023-04-27T07:48:26.075Z,53.67
2023-04-27T07:50:54.550Z,53.03
2023-04-27T07:53:21.336Z,51.73
2023-04-27T07:55:48.034Z,51.72
2023-04-27T07:58:17.522Z,53.31
2023-04-27T08:00:45.406Z,53.22
2023-04-27T08:03:12.966Z,52.56
2023-04-27T08:05:40.477Z,50.21
2023-04-27T08:08:07.544Z,49.45
2023-04-27T08:10:36.792Z,49.46
2023-04-27T08:13:03.562Z,49.74
2023-04-27T08:15:30.789Z,49.84
2023-04-27T08:17:57.783Z,49.36
2023-04-27T08:20:25.011Z,49.83
2023-04-27T08:22:54.632Z,51.48
2023-04-27T08:25:22.377Z,50.79
2023-04-27T08:27:49.452Z,50.68
2023-04-27T08:30:17.527Z,49.67
2023-04-27T08:32:47.194Z,49.34
2023-04-27T08:35:14.028Z,48.73
2023-04-27T08:37:41.138Z,48.67
2023-04-27T08:40:09.784Z,48.29
2023-04-27T08:42:36.839Z,48.08
2023-04-27T08:45:06.541Z,48.71
2023-04-27T08:47:42.666Z,48.24
2023-04-27T08:50:11.642Z,46.89
2023-04-27T08:52:39.111Z,47.20
2023-04-27T08:55:07.813Z,48.74
2023-04-27T08:57:35.051Z,46.51
2023-04-27T09:00:02.840Z,47.69
2023-04-27T09:02:29.967Z,48.35
2023-04-27T09:04:57.684Z,48.93
2023-04-27T09:07:26.225Z,47.19
2023-04-27T09:10:02.653Z,47.41
2023-04-27T09:12:29.763Z,47.06
2023-04-27T09:14:57.942Z,46.91
2023-04-27T09:17:25.862Z,46.42
2023-04-27T09:20:04.167Z,46.42
2023-04-27T09:22:31.254Z,46.48
2023-04-27T09:25:00.939Z,46.08
2023-04-27T09:27:28.739Z,45.84
2023-04-27T09:29:55.729Z,44.02
2023-04-27T09:32:22.793Z,46.00
2023-04-27T09:34:49.880Z,44.37
2023-04-27T09:37:17.153Z,45.01
2023-04-27T09:39:44.554Z,44.97
2023-04-27T09:42:12.716Z,42.92
2023-04-27T09:44:39.972Z,46.55
2023-04-27T09:47:06.701Z,44.23
2023-04-27T09:49:33.824Z,45.12
2023-04-27T09:52:00.884Z,44.68
2023-04-27T09:54:27.970Z,46.03
2023-04-27T09:57:12.842Z,45.40
2023-04-27T10:00:08.684Z,45.08
2023-04-27T10:02:54.450Z,44.46
2023-04-27T10:05:41.098Z,43.34
2023-04-27T10:08:08.332Z,43.36
2023-04-27T10:10:48.540Z,45.62
2023-04-27T10:13:23.730Z,43.08
2023-04-27T10:15:50.636Z,41.08
2023-04-27T10:18:27.963Z,43.37
2023-04-27T10:20:55.046Z,40.83
2023-04-27T10:23:25.946Z,41.35
2023-04-27T10:25:54.146Z,42.18
2023-04-27T10:28:21.242Z,43.18
2023-04-27T10:30:48.038Z,42.25
2023-04-27T10:33:19.992Z,40.69
2023-04-27T10:35:57.450Z,40.57
2023-04-27T10:38:28.932Z,41.10
2023-04-27T10:41:54.534Z,40.40
2023-04-27T10:44:48.135Z,39.72
2023-04-27T10:47:16.399Z,40.12
2023-04-27T10:49:43.636Z,39.22
2023-04-27T10:52:10.441Z,37.34
2023-04-27T10:54:38.564Z,37.11
2023-04-27T10:57:10.093Z,39.26
2023-04-27T10:59:51.439Z,40.00
2023-04-27T11:02:24.656Z,38.27
2023-04-27T11:04:52.202Z,37.48
2023-04-27T11:07:26.058Z,39.07
2023-04-27T11:09:53.635Z,40.96
2023-04-27T11:12:20.415Z,38.79
2023-04-27T11:14:47.503Z,38.53
2023-04-27T11:17:15.254Z,39.91
2023-04-27T11:19:48.942Z,40.71
2023-04-27T11:22:16.407Z,39.72
2023-04-27T11:24:50.423Z,39.23
2023-04-27T11:27:17.919Z,37.95
2023-04-27T11:29:44.784Z,38.50
2023-04-27T11:32:22.461Z,36.69
2023-04-27T11:34:53.615Z,35.73
2023-04-27T11:37:25.826Z,34.18
2023-04-27T11:39:53.306Z,35.94
2023-04-27T11:42:25.508Z,37.34
2023-04-27T11:44:52.846Z,36.41
2023-04-27T11:47:19.634Z,36.90
2023-04-27T11:49:48.130Z,35.11
2023-04-27T11:52:16.679Z,37.20
2023-04-27T11:55:09.156Z,34.10
2023-04-27T11:57:36.130Z,34.92
2023-04-27T12:00:05.749Z,36.23
2023-04-27T12:02:33.874Z,35.45
2023-04-27T12:05:01.084Z,37.83
2023-04-27T12:07:28.468Z,37.36
2023-04-27T12:09:57.530Z,38.14
2023-04-27T12:12:25.158Z,35.28
2023-04-27T12:14:53.066Z,35.23
2023-04-27T12:17:27.196Z,36.14
2023-04-27T12:19:54.237Z,35.89
2023-04-27T12:22:21.273Z,36.87
2023-04-27T12:24:50.207Z,36.30
2023-04-27T12:27:16.901Z,35.81
2023-04-27T12:29:43.696Z,36.01
2023-04-27T12:32:10.903Z,35.61
2023-04-27T12:34:38.161Z,34.01
2023-04-27T12:37:05.560Z,34.37
2023-04-27T12:39:32.687Z,36.72
2023-04-27T12:41:59.378Z,34.44
2023-04-27T12:44:26.143Z,35.26
2023-04-27T12:46:53.050Z,32.32
2023-04-27T12:49:21.284Z,32.62
2023-04-27T12:51:49.597Z,31.16
2023-04-27T12:54:16.979Z,31.52
2023-04-27T12:56:44.274Z,32.58
2023-04-27T12:59:11.798Z,30.48
2023-04-27T13:01:38.549Z,30.29
2023-04-27T13:04:07.056Z,30.15
2023-04-27T13:06:34.375Z,30.19
2023-04-27T13:09:01.123Z,29.58
2023-04-27T13:11:27.898Z,28.61
2023-04-27T13:13:55.054Z,29.80
2023-04-27T13:16:21.910Z,30.59
2023-04-27T13:18:50.836Z,29.96
2023-04-27T13:21:17.723Z,29.70
2023-04-27T13:23:45.459Z,28.31
2023-04-27T13:26:13.839Z,32.25
2023-04-27T13:28:42.571Z,30.16
2023-04-27T13:31:09.450Z,29.69
2023-04-27T13:33:41.344Z,26.94
2023-04-27T13:36:11.631Z,28.15
2023-04-27T13:38:38.406Z,26.76
2023-04-27T13:41:13.999Z,26.52
2023-04-27T13:43:40.757Z,28.13
2023-04-27T13:46:07.861Z,28.04
2023-04-27T13:48:35.018Z,29.02
2023-04-27T13:51:02.819Z,30.35
2023-04-27T13:53:32.310Z,28.07
2023-04-27T13:55:59.308Z,29.13
2023-04-27T13:58:27.512Z,28.79
2023-04-27T14:00:54.941Z,28.15
2023-04-27T14:03:22.229Z,28.78
2023-04-27T14:05:49.401Z,27.73
2023-04-27T14:08:16.408Z,28.60
2023-04-27T14:10:47.075Z,28.11
2023-04-27T14:13:13.904Z,28.23
2023-04-27T14:15:41.243Z,28.36
2023-04-27T14:18:08.513Z,24.60
2023-04-27T14:20:37.011Z,27.10
2023-04-27T14:23:05.005Z,28.12
2023-04-27T14:25:31.875Z,26.61
2023-04-27T14:28:02.168Z,25.75
2023-04-27T14:30:32.411Z,25.48
2023-04-27T14:33:00.214Z,25.83
2023-04-27T14:35:28.623Z,26.42
2023-04-27T14:37:55.366Z,26.66
2023-04-27T14:40:22.304Z,25.01
2023-04-27T14:42:51.756Z,27.58
2023-04-27T14:45:24.155Z,28.62
2023-04-27T14:47:52.399Z,29.21
2023-04-27T14:50:20.217Z,28.79
2023-04-27T14:52:50.072Z,29.13
2023-04-27T14:55:19.698Z,28.51
2023-04-27T14:57:47.257Z,28.21
2023-04-27T15:00:16.976Z,27.32
2023-04-27T15:02:45.000Z,27.81
2023-04-27T15:05:12.126Z,26.08
2023-04-27T15:07:40.157Z,28.19
2023-04-27T15:10:07.556Z,28.84
2023-04-27T15:12:34.651Z,29.91
2023-04-27T15:15:02.249Z,28.40
2023-04-27T15:17:30.773Z,27.14
2023-04-27T15:19:57.522Z,27.34
2023-04-27T15:22:26.050Z,26.28
2023-04-27T15:24:54.715Z,28.27
2023-04-27T15:27:22.475Z,28.06
2023-04-27T15:29:50.284Z,28.74
2023-04-27T15:32:19.515Z,27.51
2023-04-27T15:34:48.711Z,26.94
2023-04-27T15:37:17.122Z,27.58
2023-04-27T15:39:49.692Z,26.21
2023-04-27T15:44:58.312Z,29.07
2023-04-27T15:47:26.860Z,27.58
2023-04-27T15:49:57.900Z,28.38
2023-04-27T15:52:26.302Z,28.28
2023-04-27T15:54:53.687Z,28.29
2023-04-27T15:57:20.479Z,27.68
2023-04-27T15:59:51.071Z,28.15
2023-04-27T16:02:18.265Z,25.29
2023-04-27T16:04:45.133Z,25.98
2023-04-27T16:07:12.864Z,25.20
2023-04-27T16:09:40.005Z,26.58
2023-04-27T16:12:09.777Z,26.45
2023-04-27T16:14:36.802Z,27.66
2023-04-27T16:17:03.478Z,27.35
2023-04-27T16:19:30.316Z,29.23
2023-04-27T16:21:57.171Z,30.92
2023-04-27T16:24:25.745Z,27.94
2023-04-27T16:26:54.484Z,28.02
2023-04-27T16:29:21.986Z,27.57
2023-04-27T16:31:57.852Z,25.94
2023-04-27T16:34:25.085Z,24.70
2023-04-27T16:36:52.069Z,25.58
2023-04-27T16:39:20.250Z,24.46
2023-04-27T16:41:48.487Z,24.06
2023-04-27T16:44:16.078Z,22.85
2023-04-27T16:46:43.399Z,23.97
2023-04-27T16:49:10.404Z,23.90
2023-04-27T16:51:37.541Z,23.85
2023-04-27T16:54:04.649Z,24.26
2023-04-27T16:59:49.307Z,28.19
2023-04-27T17:02:24.672Z,27.00
2023-04-27T17:04:53.836Z,27.25
2023-04-27T17:07:21.146Z,26.72
2023-04-27T17:09:48.207Z,27.38
2023-04-27T17:12:15.343Z,28.18
2023-04-27T17:14:42.474Z,27.38
2023-04-27T17:17:09.959Z,27.25
2023-04-27T17:19:36.984Z,27.67
2023-04-27T17:22:05.070Z,29.27
2023-04-27T17:24:32.651Z,29.86
2023-04-27T17:26:59.681Z,31.07
2023-04-27T17:29:26.919Z,31.38
2023-04-27T17:31:54.033Z,30.73
2023-04-27T17:34:20.759Z,29.62
2023-04-27T17:36:47.774Z,28.38
2023-04-27T17:39:15.179Z,28.75
2023-04-27T17:41:42.251Z,29.91
2023-04-27T17:44:11.711Z,30.08
2023-04-27T17:46:41.484Z,30.78
2023-04-27T17:49:08.554Z,31.06
2023-04-27T17:51:35.554Z,31.57
2023-04-27T17:54:02.525Z,32.13
2023-04-27T17:56:29.486Z,32.93
2023-04-27T17:58:56.677Z,35.38
2023-04-27T18:01:24.541Z,36.80
2023-04-27T18:03:52.051Z,37.91
2023-04-27T18:06:19.126Z,39.56
2023-04-27T18:08:45.992Z,37.96
2023-04-27T18:11:13.038Z,38.22
2023-04-27T18:13:39.985Z,37.55
2023-04-27T18:16:07.146Z,39.42
2023-04-27T18:18:34.106Z,39.14
2023-04-27T18:21:00.833Z,40.22
2023-04-27T18:23:27.513Z,42.21
2023-04-27T18:25:58.860Z,43.75
2023-04-27T18:28:25.568Z,43.67
2023-04-27T18:30:53.060Z,43.56
2023-04-27T18:33:19.746Z,43.95
2023-04-27T18:35:46.630Z,46.07
2023-04-27T18:38:13.374Z,45.79
2023-04-27T18:40:42.941Z,44.99
2023-04-27T18:43:12.484Z,45.33
2023-04-27T18:45:40.388Z,47.64
2023-04-27T18:48:08.421Z,47.03
2023-04-27T18:53:26.667Z,47.43
2023-04-27T18:56:26.656Z,46.48
2023-04-27T18:59:01.431Z,44.84
2023-04-27T19:01:39.016Z,43.60
2023-04-27T19:04:08.729Z,46.88
2023-04-27T19:06:36.966Z,47.35
2023-04-27T19:09:05.023Z,47.05
2023-04-27T19:11:31.744Z,48.58
2023-04-27T19:13:59.914Z,49.76
2023-04-27T19:16:27.822Z,50.26
2023-04-27T19:22:18.417Z,49.97
2023-04-27T19:24:45.746Z,49.59
2023-04-27T19:27:13.942Z,50.80
2023-04-27T19:29:54.606Z,49.94
2023-04-27T19:32:21.992Z,50.11
2023-04-27T19:34:50.583Z,50.11
2023-04-27T19:37:19.436Z,48.91
2023-04-27T19:39:46.155Z,49.91
2023-04-27T19:42:15.944Z,50.44
2023-04-27T19:44:43.814Z,50.03
2023-04-27T19:47:10.484Z,50.00
2023-04-27T19:49:38.291Z,49.18
2023-04-27T19:52:06.359Z,50.47
2023-04-27T19:54:35.508Z,48.91
2023-04-27T19:57:03.651Z,47.55
2023-04-27T19:59:30.328Z,50.32
2023-04-27T20:01:58.092Z,51.50
2023-04-27T20:04:25.528Z,52.49
2023-04-27T20:06:52.705Z,51.78
2023-04-27T20:09:19.707Z,52.65
2023-04-27T20:11:47.867Z,52.90
2023-04-27T20:14:14.942Z,51.31
2023-04-27T20:16:42.893Z,52.04
2023-04-27T20:19:09.842Z,51.96
2023-04-27T20:21:36.815Z,52.64
2023-04-27T20:24:03.750Z,51.14
2023-04-27T20:26:30.777Z,50.41
2023-04-27T20:28:57.573Z,50.79
2023-04-27T20:31:27.227Z,49.76
2023-04-27T20:33:57.333Z,52.13
2023-04-27T20:36:25.811Z,51.79
2023-04-27T20:38:52.695Z,52.78
2023-04-27T20:41:20.355Z,52.44
2023-04-27T20:43:47.053Z,51.87
2023-04-27T20:46:14.300Z,52.71
2023-04-27T20:48:42.133Z,52.62
2023-04-27T20:51:08.889Z,52.73
2023-04-27T20:53:35.886Z,52.92
2023-04-27T20:56:03.087Z,50.01
2023-04-27T20:58:30.262Z,51.13
2023-04-27T21:00:57.538Z,53.22
2023-04-27T21:03:24.918Z,51.67
2023-04-27T21:05:53.457Z,53.96
2023-04-27T21:08:20.266Z,51.31
2023-04-27T21:10:47.006Z,53.23
2023-04-27T21:13:14.800Z,52.97
2023-04-27T21:15:41.845Z,52.49
2023-04-27T21:18:16.029Z,53.47
2023-04-27T21:20:49.823Z,51.00
2023-04-27T21:23:17.046Z,52.74
2023-04-27T21:25:45.040Z,52.27
2023-04-27T21:28:11.794Z,52.99
2023-04-27T21:30:38.709Z,52.94
2023-04-27T21:33:05.878Z,52.93
2023-04-27T21:35:32.635Z,52.27
2023-04-27T21:38:00.626Z,53.33
2023-04-27T21:40:27.508Z,51.79
2023-04-27T21:42:54.215Z,52.51
2023-04-27T21:45:22.436Z,52.84
2023-04-27T21:47:49.261Z,52.79
2023-04-27T21:50:16.165Z,52.69
2023-04-27T21:52:44.695Z,54.65
2023-04-27T21:55:12.113Z,53.52
2023-04-27T21:57:38.956Z,54.10
2023-04-27T22:00:07.447Z,54.60
2023-04-27T22:02:34.446Z,53.90
2023-04-27T22:05:01.575Z,55.85
2023-04-27T22:07:28.528Z,56.74
2023-04-27T22:09:55.926Z,55.76
2023-04-27T22:12:24.145Z,56.26
2023-04-27T22:14:51.154Z,53.94
2023-04-27T22:17:18.976Z,54.20
2023-04-27T22:19:45.862Z,55.36
2023-04-27T22:22:12.708Z,56.65
2023-04-27T22:24:39.702Z,56.14
2023-04-27T22:27:07.903Z,56.76
2023-04-27T22:29:35.021Z,56.30
2023-04-27T22:32:02.293Z,56.81
2023-04-27T22:34:29.408Z,56.22
2023-04-27T22:36:57.683Z,56.90
2023-04-27T22:39:25.177Z,56.84
2023-04-27T22:41:51.933Z,58.78
2023-04-27T22:44:18.987Z,58.22
2023-04-27T22:46:45.897Z,59.92
2023-04-27T22:49:12.875Z,59.39
2023-04-27T22:51:40.873Z,58.86
2023-04-27T22:54:09.024Z,59.33
2023-04-27T22:56:37.192Z,59.36
2023-04-27T22:59:03.910Z,60.82
2023-04-27T23:01:32.228Z,61.11
2023-04-27T23:03:59.318Z,61.16
2023-04-27T23:06:26.203Z,59.49
2023-04-27T23:08:53.880Z,60.13
2023-04-27T23:11:20.649Z,60.34
2023-04-27T23:13:47.942Z,60.25
2023-04-27T23:16:15.041Z,61.54
2023-04-27T23:18:42.325Z,61.53
2023-04-27T23:21:10.311Z,61.97
2023-04-27T23:23:37.142Z,61.85
2023-04-27T23:26:04.000Z,61.45
2023-04-27T23:28:30.879Z,61.13
2023-04-27T23:30:58.189Z,61.13
2023-04-27T23:33:25.476Z,61.09
2023-04-27T23:35:52.183Z,60.11
2023-04-27T23:38:19.311Z,59.93
2023-04-27T23:40:46.804Z,60.46
2023-04-27T23:43:13.740Z,59.92
2023-04-27T23:45:41.763Z,60.12
2023-04-27T23:48:09.117Z,60.99
2023-04-27T23:50:36.253Z,62.07
2023-04-27T23:53:03.220Z,60.05
2023-04-27T23:55:30.750Z,61.61
2023-04-27T23:57:58.812Z,60.04
